Ocean Outback — 9V8072 — position and weather

sailwx.info

Track history (hours):
 
Tides and Currents Weather Stations Pressure Air Temp Water Temp Dewpoint Dewpoint Depression Visibility Wind Speed Wind Dir Waves Ship Positions

Ocean Outback

Last reported at 2015-Mar-27 04:33 UTC. Time now 2015-Mar-30 14:15 UTC.
Position N 01°15' E 104°05'.

Length 136 m; draft 7 m.

Type: Ship. MMSI: 563745000.

Date/timePositionNaut miles runAvg speedWind from/ knotsBaromVisibWave heightAir tempDewpointWater temp
2015-Mar-27 04:33N 01°15' E 104°05'1211.6
2015-Mar-27 03:33N 01°15' E 103°54'1 0.7
2015-Mar-27 02:22N 01°15' E 103°53'0 0.0
2015-Mar-27 01:25N 01°16' E 103°53'0 0.0
2015-Mar-26 23:04N 01°16' E 103°53'0 0.0
2015-Mar-26 22:25N 01°16' E 103°53'0 0.0
2015-Mar-26 21:25N 01°15' E 103°53'0 0.1
2015-Mar-26 20:25N 01°15' E 103°53'0 0.0
2015-Mar-26 19:31N 01°15' E 103°53'0 0.0
2015-Mar-26 18:19N 01°15' E 103°53'0 0.5
2015-Mar-26 17:30N 01°15' E 103°53'6 6.7
2015-Mar-26 16:33N 01°16' E 103°59'  
2015-Mar-20 23:20S 07°29' E 115°17'1215.6
2015-Mar-20 22:33S 07°37' E 115°26'  
2015-Mar-18 12:05S 12°05' E 129°39'1416.4
2015-Mar-18 11:12S 12°08' E 129°53'1216.5
2015-Mar-18 10:30S 12°11' E 130°05'1516.3
2015-Mar-18 09:33S 12°15' E 130°20'1515.4
2015-Mar-18 08:33S 12°18' E 130°36'1313.5
2015-Mar-18 07:34S 12°25' E 130°47'7 6.6
2015-Mar-18 06:31S 12°29' E 130°53'0 0.0
2015-Mar-18 05:28S 12°29' E 130°53'0 0.1
2015-Mar-18 04:25S 12°29' E 130°53'0 0.1
2015-Mar-18 03:31S 12°29' E 130°53'0 0.1
2015-Mar-18 02:31S 12°29' E 130°53'0 0.0
2015-Mar-18 01:32S 12°29' E 130°53'0 0.1
2015-Mar-18 00:31S 12°29' E 130°53'0 0.1
2015-Mar-17 23:31S 12°29' E 130°53'0 0.0
2015-Mar-17 22:31S 12°29' E 130°53'0 0.1
2015-Mar-17 21:31S 12°29' E 130°53'0 0.0
2015-Mar-17 20:31S 12°29' E 130°53'0 0.1
2015-Mar-17 19:31S 12°29' E 130°53'0 0.1
2015-Mar-17 18:31S 12°29' E 130°53'0 0.1
2015-Mar-17 17:31S 12°29' E 130°53'0 0.1
2015-Mar-17 16:31S 12°29' E 130°53'0 0.0
2015-Mar-17 15:31S 12°29' E 130°53'0 0.0
2015-Mar-17 14:31S 12°29' E 130°53'0 0.1
2015-Mar-17 13:33S 12°29' E 130°53'7 6.7
2015-Mar-17 12:33S 12°26' E 130°47'1211.7
2015-Mar-17 11:33S 12°18' E 130°38'1515.4
2015-Mar-17 10:33S 12°11' E 130°24'1515.3
2015-Mar-17 09:33S 12°05' E 130°10'1615.1
2015-Mar-17 08:29S 11°56' E 129°56'1515.4
2015-Mar-17 07:31S 11°45' E 129°45'1514.9
2015-Mar-17 06:33S 11°35' E 129°35'1816.1
2015-Mar-17 05:24S 11°22' E 129°22'  
Track history (hours):
 
Tides and Currents Weather Stations Pressure Air Temp Water Temp Dewpoint Dewpoint Depression Visibility Wind Speed Wind Dir Waves Ship Positions

Ocean Outback

Last reported at 2015-Mar-27 04:33 UTC. Time now 2015-Mar-30 14:15 UTC.
Position N 01°15' E 104°05'.

Length 136 m; draft 7 m.

Type: Ship. MMSI: 563745000.

Date/timePositionNaut miles runAvg speedWind from/ knotsBaromVisibWave heightAir tempDewpointWater temp
2015-Mar-27 04:33N 01°15' E 104°05'1211.6
2015-Mar-27 03:33N 01°15' E 103°54'1 0.7
2015-Mar-27 02:22N 01°15' E 103°53'0 0.0
2015-Mar-27 01:25N 01°16' E 103°53'0 0.0
2015-Mar-26 23:04N 01°16' E 103°53'0 0.0
2015-Mar-26 22:25N 01°16' E 103°53'0 0.0
2015-Mar-26 21:25N 01°15' E 103°53'0 0.1
2015-Mar-26 20:25N 01°15' E 103°53'0 0.0
2015-Mar-26 19:31N 01°15' E 103°53'0 0.0
2015-Mar-26 18:19N 01°15' E 103°53'0 0.5
2015-Mar-26 17:30N 01°15' E 103°53'6 6.7
2015-Mar-26 16:33N 01°16' E 103°59'  
2015-Mar-20 23:20S 07°29' E 115°17'1215.6
2015-Mar-20 22:33S 07°37' E 115°26'  
2015-Mar-18 12:05S 12°05' E 129°39'1416.4
2015-Mar-18 11:12S 12°08' E 129°53'1216.5
2015-Mar-18 10:30S 12°11' E 130°05'1516.3
2015-Mar-18 09:33S 12°15' E 130°20'1515.4
2015-Mar-18 08:33S 12°18' E 130°36'1313.5
2015-Mar-18 07:34S 12°25' E 130°47'7 6.6
2015-Mar-18 06:31S 12°29' E 130°53'0 0.0
2015-Mar-18 05:28S 12°29' E 130°53'0 0.1
2015-Mar-18 04:25S 12°29' E 130°53'0 0.1
2015-Mar-18 03:31S 12°29' E 130°53'0 0.1
2015-Mar-18 02:31S 12°29' E 130°53'0 0.0
2015-Mar-18 01:32S 12°29' E 130°53'0 0.1
2015-Mar-18 00:31S 12°29' E 130°53'0 0.1
2015-Mar-17 23:31S 12°29' E 130°53'0 0.0
2015-Mar-17 22:31S 12°29' E 130°53'0 0.1
2015-Mar-17 21:31S 12°29' E 130°53'0 0.0
2015-Mar-17 20:31S 12°29' E 130°53'0 0.1
2015-Mar-17 19:31S 12°29' E 130°53'0 0.1
2015-Mar-17 18:31S 12°29' E 130°53'0 0.1
2015-Mar-17 17:31S 12°29' E 130°53'0 0.1
2015-Mar-17 16:31S 12°29' E 130°53'0 0.0
2015-Mar-17 15:31S 12°29' E 130°53'0 0.0
2015-Mar-17 14:31S 12°29' E 130°53'0 0.1
2015-Mar-17 13:33S 12°29' E 130°53'7 6.7
2015-Mar-17 12:33S 12°26' E 130°47'1211.7
2015-Mar-17 11:33S 12°18' E 130°38'1515.4
2015-Mar-17 10:33S 12°11' E 130°24'1515.3
2015-Mar-17 09:33S 12°05' E 130°10'1615.1
2015-Mar-17 08:29S 11°56' E 129°56'1515.4
2015-Mar-17 07:31S 11°45' E 129°45'1514.9
2015-Mar-17 06:33S 11°35' E 129°35'1816.1
2015-Mar-17 05:24S 11°22' E 129°22'  

Dump ship's entire track history